sensor_id;sensor_type;location;lat;lon;timestamp;P1;durP1;ratioP1;P2;durP2;ratioP2
22429;SDS011;11382;48.086;11.632;2022-12-20T00:02:02;8.48;;;4.80;;
22429;SDS011;11382;48.086;11.632;2022-12-20T00:04:34;7.30;;;3.90;;
22429;SDS011;11382;48.086;11.632;2022-12-20T00:07:04;7.22;;;4.05;;
22429;SDS011;11382;48.086;11.632;2022-12-20T00:09:34;7.47;;;3.92;;
22429;SDS011;11382;48.086;11.632;2022-12-20T00:12:04;4.82;;;3.13;;
22429;SDS011;11382;48.086;11.632;2022-12-20T00:14:32;5.70;;;3.25;;
22429;SDS011;11382;48.086;11.632;2022-12-20T00:17:03;5.60;;;3.05;;
22429;SDS011;11382;48.086;11.632;2022-12-20T00:19:31;5.70;;;3.10;;
22429;SDS011;11382;48.086;11.632;2022-12-20T00:22:04;4.38;;;2.55;;
22429;SDS011;11382;48.086;11.632;2022-12-20T00:24:35;4.50;;;2.90;;
22429;SDS011;11382;48.086;11.632;2022-12-20T00:27:06;5.72;;;2.90;;
22429;SDS011;11382;48.086;11.632;2022-12-20T00:29:35;5.50;;;2.92;;
22429;SDS011;11382;48.086;11.632;2022-12-20T00:32:05;4.50;;;2.65;;
22429;SDS011;11382;48.086;11.632;2022-12-20T00:34:34;5.45;;;3.45;;
22429;SDS011;11382;48.086;11.632;2022-12-20T00:37:05;5.50;;;3.05;;
22429;SDS011;11382;48.086;11.632;2022-12-20T00:39:33;3.85;;;2.47;;
22429;SDS011;11382;48.086;11.632;2022-12-20T00:42:01;6.43;;;2.65;;
22429;SDS011;11382;48.086;11.632;2022-12-20T00:44:29;3.88;;;2.63;;
22429;SDS011;11382;48.086;11.632;2022-12-20T00:46:57;3.95;;;2.70;;
22429;SDS011;11382;48.086;11.632;2022-12-20T00:49:27;3.53;;;2.35;;
22429;SDS011;11382;48.086;11.632;2022-12-20T00:51:57;3.67;;;2.47;;
22429;SDS011;11382;48.086;11.632;2022-12-20T00:54:28;4.40;;;2.60;;
22429;SDS011;11382;48.086;11.632;2022-12-20T00:56:56;4.18;;;2.58;;
22429;SDS011;11382;48.086;11.632;2022-12-20T00:59:24;4.85;;;2.75;;
22429;SDS011;11382;48.086;11.632;2022-12-20T01:01:54;3.72;;;2.45;;
22429;SDS011;11382;48.086;11.632;2022-12-20T01:04:22;5.75;;;2.78;;
22429;SDS011;11382;48.086;11.632;2022-12-20T01:06:52;3.78;;;2.40;;
22429;SDS011;11382;48.086;11.632;2022-12-20T01:09:21;3.88;;;2.38;;
22429;SDS011;11382;48.086;11.632;2022-12-20T01:11:50;4.53;;;2.60;;
22429;SDS011;11382;48.086;11.632;2022-12-20T01:14:18;5.55;;;2.63;;
22429;SDS011;11382;48.086;11.632;2022-12-20T01:16:47;4.63;;;2.28;;
22429;SDS011;11382;48.086;11.632;2022-12-20T01:19:16;4.40;;;2.40;;
22429;SDS011;11382;48.086;11.632;2022-12-20T01:21:44;4.75;;;2.20;;
22429;SDS011;11382;48.086;11.632;2022-12-20T01:24:15;2.47;;;2.08;;
22429;SDS011;11382;48.086;11.632;2022-12-20T01:26:45;4.07;;;2.70;;
22429;SDS011;11382;48.086;11.632;2022-12-20T01:29:16;3.35;;;2.15;;
22429;SDS011;11382;48.086;11.632;2022-12-20T01:31:45;3.13;;;2.10;;
22429;SDS011;11382;48.086;11.632;2022-12-20T01:34:16;3.45;;;2.50;;
22429;SDS011;11382;48.086;11.632;2022-12-20T01:36:45;3.80;;;2.13;;
22429;SDS011;11382;48.086;11.632;2022-12-20T01:39:16;3.65;;;2.00;;
22429;SDS011;11382;48.086;11.632;2022-12-20T01:41:45;3.22;;;2.13;;
22429;SDS011;11382;48.086;11.632;2022-12-20T01:47:14;3.75;;;2.22;;
22429;SDS011;11382;48.086;11.632;2022-12-20T01:49:45;5.25;;;2.58;;
22429;SDS011;11382;48.086;11.632;2022-12-20T01:52:17;4.82;;;2.70;;
22429;SDS011;11382;48.086;11.632;2022-12-20T01:54:50;5.00;;;2.83;;
22429;SDS011;11382;48.086;11.632;2022-12-20T01:57:26;3.25;;;2.47;;
22429;SDS011;11382;48.086;11.632;2022-12-20T01:59:59;3.70;;;2.33;;
22429;SDS011;11382;48.086;11.632;2022-12-20T02:02:38;4.00;;;2.20;;
22429;SDS011;11382;48.086;11.632;2022-12-20T02:05:09;2.78;;;1.95;;
22429;SDS011;11382;48.086;11.632;2022-12-20T02:07:43;4.43;;;2.15;;
22429;SDS011;11382;48.086;11.632;2022-12-20T02:10:16;3.35;;;2.03;;
22429;SDS011;11382;48.086;11.632;2022-12-20T02:12:47;3.33;;;2.17;;
22429;SDS011;11382;48.086;11.632;2022-12-20T02:17:56;3.53;;;2.08;;
22429;SDS011;11382;48.086;11.632;2022-12-20T02:27:13;2.95;;;1.70;;
22429;SDS011;11382;48.086;11.632;2022-12-20T02:30:04;3.30;;;2.17;;
22429;SDS011;11382;48.086;11.632;2022-12-20T02:32:38;4.28;;;1.85;;
22429;SDS011;11382;48.086;11.632;2022-12-20T02:35:12;2.53;;;1.70;;
22429;SDS011;11382;48.086;11.632;2022-12-20T02:37:48;4.60;;;2.03;;
22429;SDS011;11382;48.086;11.632;2022-12-20T02:40:22;3.15;;;2.05;;
22429;SDS011;11382;48.086;11.632;2022-12-20T02:42:55;6.68;;;2.20;;
22429;SDS011;11382;48.086;11.632;2022-12-20T02:45:27;3.40;;;2.50;;
22429;SDS011;11382;48.086;11.632;2022-12-20T02:48:02;5.95;;;2.65;;
22429;SDS011;11382;48.086;11.632;2022-12-20T02:50:37;4.72;;;2.47;;
22429;SDS011;11382;48.086;11.632;2022-12-20T02:53:09;3.65;;;1.77;;
22429;SDS011;11382;48.086;11.632;2022-12-20T02:55:44;5.32;;;2.10;;
22429;SDS011;11382;48.086;11.632;2022-12-20T02:58:18;2.47;;;1.70;;
22429;SDS011;11382;48.086;11.632;2022-12-20T03:00:57;2.58;;;1.67;;
22429;SDS011;11382;48.086;11.632;2022-12-20T03:03:31;3.05;;;1.85;;
22429;SDS011;11382;48.086;11.632;2022-12-20T03:06:03;3.33;;;1.77;;
22429;SDS011;11382;48.086;11.632;2022-12-20T03:08:32;2.70;;;1.80;;
22429;SDS011;11382;48.086;11.632;2022-12-20T03:11:01;3.30;;;1.98;;
22429;SDS011;11382;48.086;11.632;2022-12-20T03:13:37;3.97;;;1.77;;
22429;SDS011;11382;48.086;11.632;2022-12-20T03:16:09;2.60;;;1.90;;
22429;SDS011;11382;48.086;11.632;2022-12-20T03:18:37;4.72;;;2.08;;
22429;SDS011;11382;48.086;11.632;2022-12-20T03:21:06;4.82;;;1.45;;
22429;SDS011;11382;48.086;11.632;2022-12-20T03:23:34;3.58;;;1.63;;
22429;SDS011;11382;48.086;11.632;2022-12-20T03:26:05;4.13;;;1.63;;
22429;SDS011;11382;48.086;11.632;2022-12-20T03:28:39;2.63;;;1.50;;
22429;SDS011;11382;48.086;11.632;2022-12-20T03:31:11;3.30;;;1.80;;
22429;SDS011;11382;48.086;11.632;2022-12-20T03:33:48;2.65;;;1.70;;
22429;SDS011;11382;48.086;11.632;2022-12-20T03:36:17;2.90;;;1.77;;
22429;SDS011;11382;48.086;11.632;2022-12-20T03:38:53;2.45;;;1.58;;
22429;SDS011;11382;48.086;11.632;2022-12-20T03:41:25;4.20;;;1.45;;
22429;SDS011;11382;48.086;11.632;2022-12-20T03:43:54;2.95;;;1.60;;
22429;SDS011;11382;48.086;11.632;2022-12-20T03:46:27;4.03;;;1.38;;
22429;SDS011;11382;48.086;11.632;2022-12-20T03:48:56;2.05;;;1.40;;
22429;SDS011;11382;48.086;11.632;2022-12-20T03:51:40;3.15;;;1.70;;
22429;SDS011;11382;48.086;11.632;2022-12-20T03:54:09;2.53;;;1.75;;
22429;SDS011;11382;48.086;11.632;2022-12-20T03:56:56;2.13;;;1.30;;
22429;SDS011;11382;48.086;11.632;2022-12-20T03:59:25;2.83;;;1.30;;
22429;SDS011;11382;48.086;11.632;2022-12-20T04:01:55;2.72;;;1.50;;
22429;SDS011;11382;48.086;11.632;2022-12-20T04:04:27;1.73;;;1.15;;
22429;SDS011;11382;48.086;11.632;2022-12-20T04:07:00;2.42;;;1.42;;
22429;SDS011;11382;48.086;11.632;2022-12-20T04:09:29;2.72;;;1.63;;
22429;SDS011;11382;48.086;11.632;2022-12-20T04:12:04;2.17;;;1.65;;
22429;SDS011;11382;48.086;11.632;2022-12-20T04:14:35;1.90;;;1.48;;
22429;SDS011;11382;48.086;11.632;2022-12-20T04:17:07;3.97;;;2.13;;
22429;SDS011;11382;48.086;11.632;2022-12-20T04:19:38;2.42;;;1.70;;
22429;SDS011;11382;48.086;11.632;2022-12-20T04:22:11;3.08;;;1.50;;
22429;SDS011;11382;48.086;11.632;2022-12-20T04:24:52;2.20;;;1.35;;
22429;SDS011;11382;48.086;11.632;2022-12-20T04:27:23;2.40;;;1.83;;
22429;SDS011;11382;48.086;11.632;2022-12-20T04:29:55;3.58;;;1.90;;
22429;SDS011;11382;48.086;11.632;2022-12-20T04:32:25;2.95;;;1.67;;
22429;SDS011;11382;48.086;11.632;2022-12-20T04:34:54;3.20;;;1.42;;
22429;SDS011;11382;48.086;11.632;2022-12-20T04:37:22;2.67;;;1.60;;
22429;SDS011;11382;48.086;11.632;2022-12-20T04:39:52;4.38;;;1.42;;
22429;SDS011;11382;48.086;11.632;2022-12-20T04:42:33;2.15;;;1.42;;
22429;SDS011;11382;48.086;11.632;2022-12-20T04:45:02;2.42;;;1.52;;
22429;SDS011;11382;48.086;11.632;2022-12-20T04:47:32;3.38;;;2.22;;
22429;SDS011;11382;48.086;11.632;2022-12-20T04:50:06;3.88;;;2.38;;
22429;SDS011;11382;48.086;11.632;2022-12-20T04:52:35;2.80;;;1.52;;
22429;SDS011;11382;48.086;11.632;2022-12-20T04:55:21;3.40;;;2.05;;
22429;SDS011;11382;48.086;11.632;2022-12-20T04:57:50;2.30;;;1.50;;
22429;SDS011;11382;48.086;11.632;2022-12-20T05:00:21;2.13;;;1.48;;
22429;SDS011;11382;48.086;11.632;2022-12-20T05:03:00;4.00;;;1.83;;
22429;SDS011;11382;48.086;11.632;2022-12-20T05:05:31;2.92;;;1.92;;
22429;SDS011;11382;48.086;11.632;2022-12-20T05:08:00;2.55;;;1.30;;
22429;SDS011;11382;48.086;11.632;2022-12-20T05:10:29;2.03;;;1.40;;
22429;SDS011;11382;48.086;11.632;2022-12-20T05:13:00;4.13;;;1.38;;
22429;SDS011;11382;48.086;11.632;2022-12-20T05:15:38;2.03;;;1.40;;
22429;SDS011;11382;48.086;11.632;2022-12-20T05:18:10;2.55;;;1.55;;
22429;SDS011;11382;48.086;11.632;2022-12-20T05:20:47;3.97;;;2.55;;
22429;SDS011;11382;48.086;11.632;2022-12-20T05:23:38;3.92;;;2.33;;
22429;SDS011;11382;48.086;11.632;2022-12-20T05:26:25;4.50;;;1.77;;
22429;SDS011;11382;48.086;11.632;2022-12-20T05:28:57;2.92;;;1.40;;
22429;SDS011;11382;48.086;11.632;2022-12-20T05:31:27;2.13;;;1.30;;
22429;SDS011;11382;48.086;11.632;2022-12-20T05:33:57;2.08;;;1.40;;
22429;SDS011;11382;48.086;11.632;2022-12-20T05:36:29;1.98;;;1.08;;
22429;SDS011;11382;48.086;11.632;2022-12-20T05:41:36;2.83;;;1.52;;
22429;SDS011;11382;48.086;11.632;2022-12-20T05:44:06;3.33;;;1.45;;
22429;SDS011;11382;48.086;11.632;2022-12-20T05:46:38;2.38;;;1.17;;
22429;SDS011;11382;48.086;11.632;2022-12-20T05:49:16;2.33;;;1.48;;
22429;SDS011;11382;48.086;11.632;2022-12-20T05:51:46;3.88;;;1.40;;
22429;SDS011;11382;48.086;11.632;2022-12-20T05:54:21;3.40;;;1.88;;
22429;SDS011;11382;48.086;11.632;2022-12-20T05:57:17;8.30;;;1.90;;
22429;SDS011;11382;48.086;11.632;2022-12-20T05:59:45;2.67;;;1.67;;
22429;SDS011;11382;48.086;11.632;2022-12-20T06:02:17;2.47;;;1.38;;
22429;SDS011;11382;48.086;11.632;2022-12-20T06:04:50;6.40;;;1.63;;
22429;SDS011;11382;48.086;11.632;2022-12-20T06:07:21;2.60;;;1.63;;
22429;SDS011;11382;48.086;11.632;2022-12-20T06:09:55;4.65;;;1.40;;
22429;SDS011;11382;48.086;11.632;2022-12-20T06:12:44;2.83;;;1.67;;
22429;SDS011;11382;48.086;11.632;2022-12-20T06:15:13;1.95;;;1.50;;
22429;SDS011;11382;48.086;11.632;2022-12-20T06:17:41;3.42;;;1.50;;
22429;SDS011;11382;48.086;11.632;2022-12-20T06:20:13;5.18;;;1.58;;
22429;SDS011;11382;48.086;11.632;2022-12-20T06:22:47;2.75;;;1.70;;
22429;SDS011;11382;48.086;11.632;2022-12-20T06:25:15;3.00;;;1.13;;
22429;SDS011;11382;48.086;11.632;2022-12-20T06:27:44;2.83;;;1.65;;
22429;SDS011;11382;48.086;11.632;2022-12-20T06:30:14;3.60;;;2.03;;
22429;SDS011;11382;48.086;11.632;2022-12-20T06:33:02;4.13;;;1.70;;
22429;SDS011;11382;48.086;11.632;2022-12-20T06:35:33;2.67;;;1.20;;
22429;SDS011;11382;48.086;11.632;2022-12-20T06:38:01;3.15;;;1.27;;
22429;SDS011;11382;48.086;11.632;2022-12-20T06:40:33;2.60;;;1.33;;
22429;SDS011;11382;48.086;11.632;2022-12-20T06:43:03;9.07;;;1.80;;
22429;SDS011;11382;48.086;11.632;2022-12-20T06:45:33;3.53;;;1.48;;
22429;SDS011;11382;48.086;11.632;2022-12-20T06:48:10;2.28;;;1.23;;
22429;SDS011;11382;48.086;11.632;2022-12-20T06:50:43;3.78;;;1.45;;
22429;SDS011;11382;48.086;11.632;2022-12-20T06:53:19;2.10;;;1.45;;
22429;SDS011;11382;48.086;11.632;2022-12-20T06:55:49;2.38;;;1.33;;
22429;SDS011;11382;48.086;11.632;2022-12-20T06:58:17;3.00;;;1.42;;
22429;SDS011;11382;48.086;11.632;2022-12-20T07:00:47;1.95;;;1.25;;
22429;SDS011;11382;48.086;11.632;2022-12-20T07:03:16;2.00;;;1.38;;
22429;SDS011;11382;48.086;11.632;2022-12-20T07:05:49;3.80;;;1.88;;
22429;SDS011;11382;48.086;11.632;2022-12-20T07:08:17;2.38;;;1.33;;
22429;SDS011;11382;48.086;11.632;2022-12-20T07:10:46;4.07;;;1.73;;
22429;SDS011;11382;48.086;11.632;2022-12-20T07:13:14;3.20;;;1.42;;
22429;SDS011;11382;48.086;11.632;2022-12-20T07:15:43;3.83;;;1.33;;
22429;SDS011;11382;48.086;11.632;2022-12-20T07:18:11;2.70;;;1.63;;
22429;SDS011;11382;48.086;11.632;2022-12-20T07:20:39;3.58;;;1.50;;
22429;SDS011;11382;48.086;11.632;2022-12-20T07:23:10;3.00;;;1.60;;
22429;SDS011;11382;48.086;11.632;2022-12-20T07:25:38;2.50;;;1.35;;
22429;SDS011;11382;48.086;11.632;2022-12-20T07:28:07;1.98;;;1.40;;
22429;SDS011;11382;48.086;11.632;2022-12-20T07:30:36;4.20;;;1.52;;
22429;SDS011;11382;48.086;11.632;2022-12-20T07:33:04;2.88;;;1.80;;
22429;SDS011;11382;48.086;11.632;2022-12-20T07:35:33;5.10;;;1.80;;
22429;SDS011;11382;48.086;11.632;2022-12-20T07:38:01;4.03;;;1.83;;
22429;SDS011;11382;48.086;11.632;2022-12-20T07:40:30;4.57;;;2.17;;
22429;SDS011;11382;48.086;11.632;2022-12-20T07:42:59;1.83;;;1.60;;
22429;SDS011;11382;48.086;11.632;2022-12-20T07:45:27;3.60;;;1.60;;
22429;SDS011;11382;48.086;11.632;2022-12-20T07:47:55;3.08;;;1.60;;
22429;SDS011;11382;48.086;11.632;2022-12-20T07:50:32;3.95;;;1.88;;
22429;SDS011;11382;48.086;11.632;2022-12-20T07:53:02;3.92;;;1.88;;
22429;SDS011;11382;48.086;11.632;2022-12-20T07:55:36;5.28;;;2.17;;
22429;SDS011;11382;48.086;11.632;2022-12-20T07:58:08;6.82;;;2.00;;
22429;SDS011;11382;48.086;11.632;2022-12-20T08:00:39;2.60;;;1.55;;
22429;SDS011;11382;48.086;11.632;2022-12-20T08:03:09;4.85;;;1.48;;
22429;SDS011;11382;48.086;11.632;2022-12-20T08:05:44;4.50;;;1.60;;
22429;SDS011;11382;48.086;11.632;2022-12-20T08:08:15;5.03;;;2.05;;
22429;SDS011;11382;48.086;11.632;2022-12-20T08:10:45;3.45;;;1.73;;
22429;SDS011;11382;48.086;11.632;2022-12-20T08:13:16;2.03;;;1.27;;
22429;SDS011;11382;48.086;11.632;2022-12-20T08:15:46;3.95;;;1.60;;
22429;SDS011;11382;48.086;11.632;2022-12-20T08:18:14;4.25;;;1.88;;
22429;SDS011;11382;48.086;11.632;2022-12-20T08:20:42;5.22;;;1.95;;
22429;SDS011;11382;48.086;11.632;2022-12-20T08:23:14;2.58;;;1.60;;
22429;SDS011;11382;48.086;11.632;2022-12-20T08:25:42;3.08;;;1.75;;
22429;SDS011;11382;48.086;11.632;2022-12-20T08:28:11;3.17;;;1.83;;
22429;SDS011;11382;48.086;11.632;2022-12-20T08:30:42;2.75;;;1.88;;
22429;SDS011;11382;48.086;11.632;2022-12-20T08:33:10;4.45;;;1.80;;
22429;SDS011;11382;48.086;11.632;2022-12-20T08:35:38;2.83;;;1.58;;
22429;SDS011;11382;48.086;11.632;2022-12-20T08:38:06;4.28;;;1.67;;
22429;SDS011;11382;48.086;11.632;2022-12-20T08:40:35;3.20;;;2.22;;
22429;SDS011;11382;48.086;11.632;2022-12-20T08:43:03;2.63;;;1.80;;
22429;SDS011;11382;48.086;11.632;2022-12-20T08:45:37;4.03;;;2.60;;
22429;SDS011;11382;48.086;11.632;2022-12-20T08:48:05;3.78;;;2.10;;
22429;SDS011;11382;48.086;11.632;2022-12-20T08:50:33;2.90;;;1.85;;
22429;SDS011;11382;48.086;11.632;2022-12-20T08:53:01;3.75;;;2.28;;
22429;SDS011;11382;48.086;11.632;2022-12-20T08:55:30;3.67;;;2.50;;
22429;SDS011;11382;48.086;11.632;2022-12-20T08:57:59;6.47;;;2.00;;
22429;SDS011;11382;48.086;11.632;2022-12-20T09:00:27;3.00;;;2.00;;
22429;SDS011;11382;48.086;11.632;2022-12-20T09:02:57;4.07;;;1.83;;
22429;SDS011;11382;48.086;11.632;2022-12-20T09:05:26;5.63;;;2.40;;
22429;SDS011;11382;48.086;11.632;2022-12-20T09:07:54;4.57;;;1.98;;
22429;SDS011;11382;48.086;11.632;2022-12-20T09:10:23;4.53;;;2.20;;
22429;SDS011;11382;48.086;11.632;2022-12-20T09:12:51;3.97;;;1.60;;
22429;SDS011;11382;48.086;11.632;2022-12-20T09:15:19;3.75;;;1.80;;
22429;SDS011;11382;48.086;11.632;2022-12-20T09:17:47;5.35;;;2.50;;
22429;SDS011;11382;48.086;11.632;2022-12-20T09:20:17;3.20;;;2.00;;
22429;SDS011;11382;48.086;11.632;2022-12-20T09:22:45;2.95;;;2.00;;
22429;SDS011;11382;48.086;11.632;2022-12-20T09:25:13;8.95;;;2.47;;
22429;SDS011;11382;48.086;11.632;2022-12-20T09:27:41;5.47;;;2.63;;
22429;SDS011;11382;48.086;11.632;2022-12-20T09:30:11;5.65;;;2.40;;
22429;SDS011;11382;48.086;11.632;2022-12-20T09:32:43;5.57;;;2.05;;
22429;SDS011;11382;48.086;11.632;2022-12-20T09:35:11;5.90;;;2.28;;
22429;SDS011;11382;48.086;11.632;2022-12-20T09:37:49;4.30;;;2.25;;
22429;SDS011;11382;48.086;11.632;2022-12-20T09:40:18;3.58;;;2.15;;
22429;SDS011;11382;48.086;11.632;2022-12-20T09:42:51;3.67;;;2.17;;
22429;SDS011;11382;48.086;11.632;2022-12-20T09:45:22;4.72;;;2.70;;
22429;SDS011;11382;48.086;11.632;2022-12-20T09:47:54;3.08;;;2.10;;
22429;SDS011;11382;48.086;11.632;2022-12-20T09:50:26;3.05;;;2.17;;
22429;SDS011;11382;48.086;11.632;2022-12-20T09:53:12;5.85;;;2.92;;
22429;SDS011;11382;48.086;11.632;2022-12-20T09:55:53;4.35;;;2.92;;
22429;SDS011;11382;48.086;11.632;2022-12-20T09:58:36;5.78;;;3.08;;
22429;SDS011;11382;48.086;11.632;2022-12-20T10:01:22;5.22;;;2.70;;
22429;SDS011;11382;48.086;11.632;2022-12-20T10:04:04;6.80;;;3.22;;
22429;SDS011;11382;48.086;11.632;2022-12-20T10:06:48;3.50;;;2.63;;
22429;SDS011;11382;48.086;11.632;2022-12-20T10:09:37;4.97;;;3.00;;
22429;SDS011;11382;48.086;11.632;2022-12-20T10:12:22;6.10;;;3.30;;
22429;SDS011;11382;48.086;11.632;2022-12-20T10:15:03;5.57;;;3.60;;
22429;SDS011;11382;48.086;11.632;2022-12-20T10:17:45;5.32;;;3.15;;
22429;SDS011;11382;48.086;11.632;2022-12-20T10:20:28;7.75;;;3.85;;
22429;SDS011;11382;48.086;11.632;2022-12-20T10:23:08;5.22;;;3.40;;
22429;SDS011;11382;48.086;11.632;2022-12-20T10:25:45;6.45;;;3.13;;
22429;SDS011;11382;48.086;11.632;2022-12-20T10:28:14;6.45;;;2.80;;
22429;SDS011;11382;48.086;11.632;2022-12-20T10:30:43;4.65;;;3.00;;
22429;SDS011;11382;48.086;11.632;2022-12-20T10:33:13;5.47;;;2.97;;
22429;SDS011;11382;48.086;11.632;2022-12-20T10:35:45;3.95;;;2.67;;
22429;SDS011;11382;48.086;11.632;2022-12-20T10:38:13;6.00;;;3.00;;
22429;SDS011;11382;48.086;11.632;2022-12-20T10:40:49;2.97;;;2.27;;
22429;SDS011;11382;48.086;11.632;2022-12-20T10:43:48;4.55;;;3.00;;
22429;SDS011;11382;48.086;11.632;2022-12-20T10:48:49;6.18;;;3.30;;
22429;SDS011;11382;48.086;11.632;2022-12-20T10:51:18;6.75;;;3.70;;
22429;SDS011;11382;48.086;11.632;2022-12-20T10:53:54;5.47;;;2.92;;
22429;SDS011;11382;48.086;11.632;2022-12-20T10:56:26;13.40;;;3.50;;
22429;SDS011;11382;48.086;11.632;2022-12-20T10:58:56;6.20;;;3.22;;
22429;SDS011;11382;48.086;11.632;2022-12-20T11:01:27;6.05;;;3.00;;
22429;SDS011;11382;48.086;11.632;2022-12-20T11:03:58;5.55;;;3.38;;
22429;SDS011;11382;48.086;11.632;2022-12-20T11:06:38;5.03;;;2.83;;
22429;SDS011;11382;48.086;11.632;2022-12-20T11:09:11;6.00;;;3.10;;
22429;SDS011;11382;48.086;11.632;2022-12-20T11:12:02;5.45;;;2.70;;
22429;SDS011;11382;48.086;11.632;2022-12-20T11:14:32;8.82;;;4.03;;
22429;SDS011;11382;48.086;11.632;2022-12-20T11:17:12;4.80;;;3.00;;
22429;SDS011;11382;48.086;11.632;2022-12-20T11:19:58;5.35;;;3.15;;
22429;SDS011;11382;48.086;11.632;2022-12-20T11:22:50;4.78;;;3.50;;
22429;SDS011;11382;48.086;11.632;2022-12-20T11:25:35;8.77;;;2.83;;
22429;SDS011;11382;48.086;11.632;2022-12-20T11:28:16;6.13;;;3.10;;
22429;SDS011;11382;48.086;11.632;2022-12-20T11:31:01;5.82;;;2.75;;
22429;SDS011;11382;48.086;11.632;2022-12-20T11:33:41;8.40;;;3.10;;
22429;SDS011;11382;48.086;11.632;2022-12-20T11:36:29;7.95;;;2.90;;
22429;SDS011;11382;48.086;11.632;2022-12-20T11:39:07;5.78;;;3.05;;
22429;SDS011;11382;48.086;11.632;2022-12-20T11:41:42;9.02;;;3.22;;
22429;SDS011;11382;48.086;11.632;2022-12-20T11:44:20;4.35;;;2.88;;
22429;SDS011;11382;48.086;11.632;2022-12-20T11:47:14;6.82;;;3.33;;
22429;SDS011;11382;48.086;11.632;2022-12-20T11:50:10;4.43;;;2.92;;
22429;SDS011;11382;48.086;11.632;2022-12-20T11:52:47;5.68;;;3.20;;
22429;SDS011;11382;48.086;11.632;2022-12-20T11:55:19;9.25;;;3.55;;
22429;SDS011;11382;48.086;11.632;2022-12-20T11:57:53;5.10;;;3.20;;
22429;SDS011;11382;48.086;11.632;2022-12-20T12:00:46;5.07;;;3.28;;
22429;SDS011;11382;48.086;11.632;2022-12-20T12:03:22;4.75;;;3.10;;
22429;SDS011;11382;48.086;11.632;2022-12-20T12:05:57;8.50;;;3.25;;
22429;SDS011;11382;48.086;11.632;2022-12-20T12:11:05;5.18;;;3.40;;
22429;SDS011;11382;48.086;11.632;2022-12-20T12:13:59;9.20;;;4.15;;
22429;SDS011;11382;48.086;11.632;2022-12-20T12:16:31;6.10;;;4.25;;
22429;SDS011;11382;48.086;11.632;2022-12-20T12:19:02;7.72;;;4.57;;
22429;SDS011;11382;48.086;11.632;2022-12-20T12:21:36;6.72;;;4.25;;
22429;SDS011;11382;48.086;11.632;2022-12-20T12:24:12;7.10;;;3.85;;
22429;SDS011;11382;48.086;11.632;2022-12-20T12:26:48;7.18;;;4.07;;
22429;SDS011;11382;48.086;11.632;2022-12-20T12:29:19;8.02;;;4.43;;
22429;SDS011;11382;48.086;11.632;2022-12-20T12:31:52;6.93;;;4.68;;
22429;SDS011;11382;48.086;11.632;2022-12-20T12:34:30;8.80;;;5.20;;
22429;SDS011;11382;48.086;11.632;2022-12-20T12:37:19;9.32;;;4.88;;
22429;SDS011;11382;48.086;11.632;2022-12-20T12:40:15;5.05;;;3.50;;
22429;SDS011;11382;48.086;11.632;2022-12-20T12:46:08;8.02;;;3.70;;
22429;SDS011;11382;48.086;11.632;2022-12-20T12:48:42;5.20;;;3.40;;
22429;SDS011;11382;48.086;11.632;2022-12-20T12:51:18;7.20;;;3.42;;
22429;SDS011;11382;48.086;11.632;2022-12-20T12:54:00;4.85;;;3.47;;
22429;SDS011;11382;48.086;11.632;2022-12-20T12:56:38;6.30;;;3.17;;
22429;SDS011;11382;48.086;11.632;2022-12-20T12:59:39;7.28;;;3.58;;
22429;SDS011;11382;48.086;11.632;2022-12-20T13:02:22;6.50;;;3.83;;
22429;SDS011;11382;48.086;11.632;2022-12-20T13:07:59;6.10;;;4.10;;
22429;SDS011;11382;48.086;11.632;2022-12-20T13:10:55;7.47;;;4.32;;
22429;SDS011;11382;48.086;11.632;2022-12-20T13:13:25;6.68;;;3.95;;
22429;SDS011;11382;48.086;11.632;2022-12-20T13:19:19;6.93;;;4.00;;
22429;SDS011;11382;48.086;11.632;2022-12-20T13:22:12;6.75;;;4.22;;
22429;SDS011;11382;48.086;11.632;2022-12-20T13:24:51;7.00;;;4.40;;
22429;SDS011;11382;48.086;11.632;2022-12-20T13:27:29;8.85;;;4.13;;
22429;SDS011;11382;48.086;11.632;2022-12-20T13:33:02;7.63;;;4.35;;
22429;SDS011;11382;48.086;11.632;2022-12-20T13:35:58;5.28;;;3.72;;
22429;SDS011;11382;48.086;11.632;2022-12-20T13:38:52;5.95;;;3.90;;
22429;SDS011;11382;48.086;11.632;2022-12-20T13:41:29;6.05;;;4.07;;
22429;SDS011;11382;48.086;11.632;2022-12-20T13:44:30;7.03;;;4.47;;
22429;SDS011;11382;48.086;11.632;2022-12-20T13:47:11;7.32;;;4.20;;
22429;SDS011;11382;48.086;11.632;2022-12-20T13:49:50;7.40;;;4.30;;
22429;SDS011;11382;48.086;11.632;2022-12-20T13:52:23;5.63;;;3.70;;
22429;SDS011;11382;48.086;11.632;2022-12-20T13:54:57;7.53;;;3.97;;
22429;SDS011;11382;48.086;11.632;2022-12-20T13:57:30;6.95;;;4.53;;
22429;SDS011;11382;48.086;11.632;2022-12-20T14:00:13;6.50;;;4.10;;
22429;SDS011;11382;48.086;11.632;2022-12-20T14:02:43;6.75;;;4.15;;
22429;SDS011;11382;48.086;11.632;2022-12-20T14:05:14;7.60;;;3.80;;
22429;SDS011;11382;48.086;11.632;2022-12-20T14:07:46;6.40;;;4.68;;
22429;SDS011;11382;48.086;11.632;2022-12-20T14:10:22;7.90;;;4.65;;
22429;SDS011;11382;48.086;11.632;2022-12-20T14:12:52;9.38;;;4.57;;
22429;SDS011;11382;48.086;11.632;2022-12-20T14:15:22;10.02;;;4.82;;
22429;SDS011;11382;48.086;11.632;2022-12-20T14:17:54;10.63;;;4.27;;
22429;SDS011;11382;48.086;11.632;2022-12-20T14:20:23;7.43;;;4.38;;
22429;SDS011;11382;48.086;11.632;2022-12-20T14:25:34;6.78;;;4.25;;
22429;SDS011;11382;48.086;11.632;2022-12-20T14:28:08;5.78;;;3.88;;
22429;SDS011;11382;48.086;11.632;2022-12-20T14:30:51;8.57;;;4.88;;
22429;SDS011;11382;48.086;11.632;2022-12-20T14:33:23;6.82;;;4.25;;
22429;SDS011;11382;48.086;11.632;2022-12-20T14:35:55;6.57;;;4.50;;
22429;SDS011;11382;48.086;11.632;2022-12-20T14:38:28;5.97;;;4.20;;
22429;SDS011;11382;48.086;11.632;2022-12-20T14:40:58;6.00;;;4.03;;
22429;SDS011;11382;48.086;11.632;2022-12-20T14:43:27;7.72;;;4.90;;
22429;SDS011;11382;48.086;11.632;2022-12-20T14:46:06;6.97;;;3.90;;
22429;SDS011;11382;48.086;11.632;2022-12-20T14:48:41;6.65;;;4.20;;
22429;SDS011;11382;48.086;11.632;2022-12-20T14:51:10;5.57;;;3.92;;
22429;SDS011;11382;48.086;11.632;2022-12-20T14:53:43;6.32;;;4.20;;
22429;SDS011;11382;48.086;11.632;2022-12-20T14:56:14;7.88;;;4.00;;
22429;SDS011;11382;48.086;11.632;2022-12-20T14:59:05;6.50;;;4.40;;
22429;SDS011;11382;48.086;11.632;2022-12-20T15:01:40;6.93;;;4.18;;
22429;SDS011;11382;48.086;11.632;2022-12-20T15:04:21;7.53;;;4.35;;
22429;SDS011;11382;48.086;11.632;2022-12-20T15:06:51;5.57;;;3.90;;
22429;SDS011;11382;48.086;11.632;2022-12-20T15:09:19;6.38;;;4.35;;
22429;SDS011;11382;48.086;11.632;2022-12-20T15:11:50;7.18;;;4.75;;
22429;SDS011;11382;48.086;11.632;2022-12-20T15:14:26;6.13;;;3.77;;
22429;SDS011;11382;48.086;11.632;2022-12-20T15:17:02;5.90;;;4.00;;
22429;SDS011;11382;48.086;11.632;2022-12-20T15:19:36;6.78;;;4.03;;
22429;SDS011;11382;48.086;11.632;2022-12-20T15:22:08;7.45;;;4.50;;
22429;SDS011;11382;48.086;11.632;2022-12-20T15:24:41;7.78;;;4.35;;
22429;SDS011;11382;48.086;11.632;2022-12-20T15:27:12;6.65;;;4.13;;
22429;SDS011;11382;48.086;11.632;2022-12-20T15:29:41;8.20;;;4.75;;
22429;SDS011;11382;48.086;11.632;2022-12-20T15:32:13;8.65;;;5.15;;
22429;SDS011;11382;48.086;11.632;2022-12-20T15:34:46;9.00;;;5.68;;
22429;SDS011;11382;48.086;11.632;2022-12-20T15:37:17;8.18;;;5.53;;
22429;SDS011;11382;48.086;11.632;2022-12-20T15:39:47;10.20;;;5.78;;
22429;SDS011;11382;48.086;11.632;2022-12-20T15:42:18;9.32;;;5.72;;
22429;SDS011;11382;48.086;11.632;2022-12-20T15:44:50;7.45;;;5.05;;
22429;SDS011;11382;48.086;11.632;2022-12-20T15:47:18;10.18;;;6.47;;